Portsmouth, Rhode Island
Current Conditions -  °F | °C
As of 5:53 PM on Friday 28 Nov 2014 (Local Time) from KUUU Reporting Station
Clear Clear  
Wind Chill: 23°   Ceiling: Unl
Heat Index: 33°   Visibility: 10mi
Dew Point: 17°   Wind: 14mph
Humidity: 52%   Direction: 320°NW
Pressure: 30.15"   Gusts: 22mph
Location:  41.6°N, 71.25°W
Report Text: KUUU 282253Z AUTO 32012G19KT 10SM CLR 01/M08 A3015 RMK AO2 SLP208 T00061083
Loading
Personal Weather Stations






























Interactive Weather Map New forecast layout! Learn more

10-Day Weather Forecast

Advertisements
Track Severe Weather on mobile